»·PEaware :: WAT175 KJFK-KORD

WAT175 :: KJFK-KORD

FLIGHT INFORMATION

Flight Status: Arrived
Operator:
Walker Air Transport
More flights by this operator :: More flights under this callsign
Pilot: Michael C. (27126)
Aircraft: BOEING 737-800
(B738)
More flights by this aircraft type
Origin: KJFK Kennedy Intl
United States
Destination: KORD Chicago-O'Hare Intl
United States
More flights between these airports :: More routes between these airports
Route: COATE Q436 EMMMA WYNDE1
File this flight plan on PilotEdge
Remarks: RMK / SIMBRIEF
Altitude:
(Current/Filed)
30,000ft
Speed:
(Current/Filed)
453kts
Departed: 11-Oct-20 06:01 AM
Arrived: 11-Oct-20 08:02 AM
Distance/Time
Traveled:
641nm/2:00
Distance/Time
To Go:
Arrived

Flight Plot

Page will automatically refresh every two minutes.

Flight plan parsing failed; only flown route is shown


Map Options




Map Legend


Flown Route
Filed Route
Departure Airport
Arrival Airport
Navaid (VOR, NDB)
Fix

Horizontal Profiles

Position Reports

Time Latitude Longitude Heading Altitude Ground
Speed
11-Oct-20 05:16 40.646317 -73.773019 188 16ft 0kts
11-Oct-20 05:17 40.646317 -73.773019 188 16ft 0kts
11-Oct-20 05:18 40.646317 -73.773019 188 16ft 0kts
11-Oct-20 05:19 40.646317 -73.773019 188 16ft 0kts
11-Oct-20 05:20 40.646317 -73.773019 188 16ft 0kts
11-Oct-20 05:21 40.646317 -73.773019 188 16ft 0kts
11-Oct-20 05:22 40.646317 -73.773019 188 15ft 0kts
11-Oct-20 05:23 40.646317 -73.773019 188 15ft 0kts
11-Oct-20 05:24 40.646317 -73.773019 188 15ft 0kts
11-Oct-20 05:25 40.646317 -73.773019 188 15ft 0kts
11-Oct-20 05:26 40.646317 -73.773019 188 15ft 0kts
11-Oct-20 05:27 40.646317 -73.773019 188 15ft 0kts
11-Oct-20 05:28 40.646317 -73.773019 188 15ft 0kts
11-Oct-20 05:29 40.646317 -73.773019 188 15ft 0kts
11-Oct-20 05:30 40.646317 -73.773019 188 15ft 0kts
11-Oct-20 05:31 40.646317 -73.773019 188 15ft 0kts
11-Oct-20 05:32 40.646317 -73.773019 188 16ft 0kts
11-Oct-20 05:33 40.646317 -73.773019 188 16ft 0kts
11-Oct-20 05:34 40.646317 -73.773019 188 16ft 0kts
11-Oct-20 05:35 40.646317 -73.773019 188 16ft 0kts
11-Oct-20 05:36 40.646317 -73.773019 188 16ft 0kts
11-Oct-20 05:37 40.646317 -73.773019 188 16ft 0kts
11-Oct-20 05:38 40.646317 -73.773019 188 16ft 0kts
11-Oct-20 05:39 40.646317 -73.773019 188 16ft 0kts
11-Oct-20 05:40 40.646317 -73.773019 188 16ft 0kts
11-Oct-20 05:41 40.646317 -73.773019 188 16ft 0kts
11-Oct-20 05:42 40.646317 -73.773019 188 16ft 0kts
11-Oct-20 05:43 40.646317 -73.773019 188 16ft 0kts
11-Oct-20 05:44 40.646317 -73.773019 188 16ft 0kts
11-Oct-20 05:45 40.646317 -73.773019 188 16ft 0kts
11-Oct-20 05:46 40.646419 -73.773000 187 16ft 2kts
11-Oct-20 05:47 40.646704 -73.772571 301 16ft 1kts
11-Oct-20 05:48 40.646670 -73.772506 300 15ft 0kts
11-Oct-20 05:49 40.646670 -73.772506 300 15ft 0kts
11-Oct-20 05:50 40.646670 -73.772506 300 15ft 0kts
11-Oct-20 05:51 40.647212 -73.773595 323 16ft 8kts
11-Oct-20 05:52 40.647325 -73.771943 124 16ft 11kts
11-Oct-20 05:53 40.644114 -73.771200 207 15ft 14kts
11-Oct-20 05:54 40.640239 -73.774224 209 15ft 18kts
11-Oct-20 05:55 40.635260 -73.778116 209 15ft 23kts
11-Oct-20 05:56 40.630917 -73.780492 209 16ft 13kts
11-Oct-20 05:57 40.626173 -73.784206 210 16ft 26kts
11-Oct-20 05:58 40.622600 -73.785141 31 16ft 10kts
11-Oct-20 05:59 40.622748 -73.785028 28 16ft 0kts
11-Oct-20 06:00 40.636937 -73.774000 30 135ft 169kts
11-Oct-20 06:01 40.682493 -73.737070 34 2591ft 229kts
11-Oct-20 06:03 40.695182 -73.652618 86 5615ft 272kts
11-Oct-20 06:04 40.695452 -73.548436 86 8733ft 296kts
11-Oct-20 06:05 40.734847 -73.467448 3 11431ft 300kts
11-Oct-20 06:06 40.829249 -73.465905 356 12992ft 359kts
11-Oct-20 06:07 40.927349 -73.481951 319 15720ft 355kts
11-Oct-20 06:08 40.975627 -73.591304 281 18301ft 353kts
11-Oct-20 06:09 40.994757 -73.720604 280 20670ft 360kts
11-Oct-20 06:10 41.013766 -73.851801 280 22777ft 366kts
11-Oct-20 06:11 41.032922 -73.983620 280 25065ft 362kts
11-Oct-20 06:12 41.052094 -74.115533 280 26745ft 368kts
11-Oct-20 06:13 41.071593 -74.249693 280 28258ft 373kts
11-Oct-20 06:14 41.091443 -74.386287 280 29619ft 379kts
11-Oct-20 06:15 41.111554 -74.524605 280 30862ft 384kts
11-Oct-20 06:16 41.133975 -74.662301 286 32345ft 380kts
11-Oct-20 06:17 41.178281 -74.788064 295 33882ft 375kts
11-Oct-20 06:17 41.220793 -74.888337 295 34929ft 373kts
11-Oct-20 06:19 41.280853 -75.027332 295 36223ft 370kts
11-Oct-20 06:20 41.330856 -75.143072 294 37176ft 370kts
11-Oct-20 06:20 41.374283 -75.243899 294 37920ft 370kts
11-Oct-20 06:22 41.434172 -75.383449 295 38173ft 371kts
11-Oct-20 06:22 41.475088 -75.483041 290 38186ft 371kts
11-Oct-20 06:23 41.512973 -75.610896 287 38192ft 387kts
11-Oct-20 06:24 41.551913 -75.747000 287 38190ft 388kts
11-Oct-20 06:25 41.590277 -75.881512 287 38193ft 386kts
11-Oct-20 06:26 41.628528 -76.016972 287 38194ft 388kts
11-Oct-20 06:27 41.666789 -76.152359 287 38197ft 386kts
11-Oct-20 06:28 41.704600 -76.287184 287 38203ft 387kts
11-Oct-20 06:29 41.742263 -76.422363 287 38208ft 388kts
11-Oct-20 06:30 41.779913 -76.558162 287 38218ft 386kts
11-Oct-20 06:31 41.817331 -76.693661 286 38219ft 387kts
11-Oct-20 06:32 41.854737 -76.829866 286 38218ft 388kts
11-Oct-20 06:33 41.892079 -76.966391 285 38220ft 390kts
11-Oct-20 06:34 41.929365 -77.104671 285 38220ft 395kts
11-Oct-20 06:35 41.966879 -77.243543 285 38218ft 392kts
11-Oct-20 06:36 42.004255 -77.382589 285 38219ft 393kts
11-Oct-20 06:37 42.041707 -77.521275 285 38218ft 394kts
11-Oct-20 06:38 42.079442 -77.660200 284 38219ft 393kts
11-Oct-20 06:39 42.116598 -77.797994 285 38220ft 391kts
11-Oct-20 06:40 42.153679 -77.935858 285 38220ft 392kts
11-Oct-20 06:41 42.190848 -78.074573 284 38213ft 392kts
11-Oct-20 06:42 42.227991 -78.213960 285 38195ft 393kts
11-Oct-20 06:43 42.263647 -78.353620 283 38191ft 391kts
11-Oct-20 06:44 42.297885 -78.493495 283 38192ft 391kts
11-Oct-20 06:45 42.332433 -78.633482 284 38191ft 391kts
11-Oct-20 06:46 42.366701 -78.773403 283 38192ft 393kts
11-Oct-20 06:47 42.397222 -78.915267 276 38197ft 389kts
11-Oct-20 06:48 42.409660 -79.061253 271 38200ft 391kts
11-Oct-20 06:49 42.419552 -79.208041 270 38201ft 392kts
11-Oct-20 06:50 42.429240 -79.355975 271 38200ft 393kts
11-Oct-20 06:51 42.438712 -79.503690 270 38201ft 392kts
11-Oct-20 06:52 42.447987 -79.651498 270 38201ft 392kts
11-Oct-20 06:53 42.456925 -79.799150 270 38182ft 392kts
11-Oct-20 06:54 42.465557 -79.946798 270 38155ft 391kts
11-Oct-20 06:55 42.473579 -80.094222 270 38155ft 391kts
11-Oct-20 06:56 42.481906 -80.241758 270 38155ft 391kts
11-Oct-20 06:57 42.490197 -80.389719 270 38155ft 392kts
11-Oct-20 06:58 42.498301 -80.537264 270 38155ft 391kts
11-Oct-20 06:59 42.506192 -80.684907 269 38159ft 392kts
11-Oct-20 07:00 42.510480 -80.832908 268 38178ft 390kts
11-Oct-20 07:01 42.514790 -80.981101 268 38200ft 399kts
11-Oct-20 07:02 42.519345 -81.135115 268 38210ft 416kts
11-Oct-20 07:03 42.526797 -81.292705 272 38207ft 414kts
11-Oct-20 07:04 42.543631 -81.447414 273 38198ft 415kts
11-Oct-20 07:05 42.561253 -81.603326 274 38167ft 415kts
11-Oct-20 07:06 42.578583 -81.757667 273 38167ft 414kts
11-Oct-20 07:07 42.595848 -81.913063 273 38165ft 415kts
11-Oct-20 07:08 42.612928 -82.068381 273 38175ft 414kts
11-Oct-20 07:09 42.629787 -82.223371 273 38180ft 414kts
11-Oct-20 07:10 42.646475 -82.378757 273 38184ft 413kts
11-Oct-20 07:11 42.662828 -82.533909 273 38195ft 414kts
11-Oct-20 07:12 42.678068 -82.689563 272 38188ft 414kts
11-Oct-20 07:13 42.693504 -82.845338 271 38174ft 413kts
11-Oct-20 07:14 42.700059 -83.003746 269 38186ft 427kts
11-Oct-20 07:15 42.705691 -83.166874 270 38180ft 433kts
11-Oct-20 07:16 42.711293 -83.327411 270 38167ft 420kts
11-Oct-20 07:17 42.716895 -83.488401 270 38164ft 427kts
11-Oct-20 07:18 42.722549 -83.649778 270 38160ft 424kts
11-Oct-20 07:19 42.728106 -83.811055 270 38157ft 425kts
11-Oct-20 07:20 42.733660 -83.972100 270 38157ft 425kts
11-Oct-20 07:21 42.739212 -84.132369 270 38157ft 425kts
11-Oct-20 07:22 42.744815 -84.293508 270 38158ft 425kts
11-Oct-20 07:23 42.750424 -84.454145 270 38163ft 424kts
11-Oct-20 07:24 42.756042 -84.614633 270 38164ft 425kts
11-Oct-20 07:25 42.761628 -84.776051 270 38159ft 425kts
11-Oct-20 07:26 42.767185 -84.937089 270 38134ft 424kts
11-Oct-20 07:27 42.772756 -85.097667 270 38136ft 425kts
11-Oct-20 07:28 42.778408 -85.259796 271 38146ft 428kts
11-Oct-20 07:29 42.783630 -85.421747 268 38145ft 426kts
11-Oct-20 07:30 42.767595 -85.581640 258 38146ft 425kts
11-Oct-20 07:31 42.742549 -85.737845 256 36091ft 418kts
11-Oct-20 07:32 42.716509 -85.885935 256 32880ft 393kts
11-Oct-20 07:33 42.690074 -86.032500 256 29258ft 406kts
11-Oct-20 07:34 42.662303 -86.183150 256 25626ft 416kts
11-Oct-20 07:35 42.634807 -86.331304 256 23664ft 380kts
11-Oct-20 07:36 42.610090 -86.463528 256 22671ft 358kts
11-Oct-20 07:37 42.585512 -86.594653 256 21665ft 354kts
11-Oct-20 07:38 42.560487 -86.723843 252 20658ft 351kts
11-Oct-20 07:39 42.527355 -86.847786 250 19649ft 343kts
11-Oct-20 07:40 42.495424 -86.965278 250 18050ft 328kts
11-Oct-20 07:41 42.463891 -87.081053 249 16099ft 326kts
11-Oct-20 07:42 42.432365 -87.195714 249 14169ft 322kts
11-Oct-20 07:43 42.401263 -87.308794 249 12242ft 319kts
11-Oct-20 07:44 42.370145 -87.421183 249 12026ft 319kts
11-Oct-20 07:45 42.333918 -87.530180 233 11866ft 321kts
11-Oct-20 07:46 42.268203 -87.609466 218 10859ft 312kts
11-Oct-20 07:47 42.200218 -87.680605 217 10008ft 292kts
11-Oct-20 07:48 42.140415 -87.743276 217 9041ft 267kts
11-Oct-20 07:49 42.093548 -87.816836 255 7401ft 266kts
11-Oct-20 07:50 42.091938 -87.911556 268 7095ft 234kts
11-Oct-20 07:51 42.092021 -87.999003 268 6127ft 233kts
11-Oct-20 07:52 42.093016 -88.086156 269 5173ft 232kts
11-Oct-20 07:53 42.093795 -88.173005 269 4253ft 230kts
11-Oct-20 07:54 42.086070 -88.255387 215 3999ft 223kts
11-Oct-20 07:56 42.030955 -88.235282 147 3743ft 217kts
11-Oct-20 07:57 41.985516 -88.183704 129 3140ft 215kts
11-Oct-20 07:58 41.964812 -88.115916 88 3035ft 185kts
11-Oct-20 07:59 41.965477 -88.052349 90 2455ft 148kts
11-Oct-20 08:00 41.965583 -87.996865 89 1659ft 146kts
11-Oct-20 08:01 41.965656 -87.943127 89 918ft 151kts
11-Oct-20 08:02 41.965813 -87.906376 76 676ft 29kts
11-Oct-20 08:03 41.967054 -87.903800 340 676ft 12kts
11-Oct-20 08:04 41.970396 -87.906383 87 676ft 13kts
11-Oct-20 08:05 41.972453 -87.904713 25 676ft 8kts
11-Oct-20 08:06 41.974658 -87.904413 24 676ft 5kts
11-Oct-20 08:07 41.975049 -87.903952 46 676ft 0kts
11-Oct-20 08:08 41.975049 -87.903952 46 676ft 0kts

Navigation Log

Ident Type
Flight plan parsing failed, navigation log unavailable